Time,TemperatureF,DewpointF,PressureIn,WindDirection,WindDirectionDegrees,WindSpeedMPH,WindSpeedGustMPH,Humidity,HourlyPrecipIn,Conditions,Clouds,dailyrainin,SolarRadiationWatts/m^2,SoftwareType,DateUTC
2013-03-06 00:01:00,5.3,3.2,30.54,NE,34,1.0,2.0,91,0.00,,CLR,0.00,0.00,VWS V14.00,2013-03-06 06:01:00,
2013-03-06 00:06:00,5.8,3.7,30.54,NE,34,2.0,3.0,91,0.00,,CLR,0.00,0.00,VWS V14.00,2013-03-06 06:06:00,
2013-03-06 00:11:00,5.9,3.8,30.54,NE,34,2.0,4.0,91,0.00,,CLR,0.00,0.00,VWS V14.00,2013-03-06 06:11:00,
2013-03-06 00:16:00,6.1,4.0,30.54,NE,34,3.0,4.0,91,0.00,,CLR,0.00,0.00,VWS V14.00,2013-03-06 06:16:00,
2013-03-06 00:21:00,6.0,3.7,30.54,NE,36,3.0,4.0,90,0.00,,CLR,0.00,0.00,VWS V14.00,2013-03-06 06:21:00,
2013-03-06 00:26:00,6.0,3.7,30.54,NE,38,3.0,4.0,90,0.00,,CLR,0.00,0.00,VWS V14.00,2013-03-06 06:26:00,
2013-03-06 00:32:00,5.9,3.6,30.54,NE,38,3.0,4.0,90,0.00,,CLR,0.00,0.00,VWS V14.00,2013-03-06 06:32:00,
2013-03-06 00:37:00,5.6,3.3,30.54,NE,38,2.0,4.0,90,0.00,,CLR,0.00,0.00,VWS V14.00,2013-03-06 06:37:00,
2013-03-06 00:42:00,5.4,3.1,30.54,NE,38,3.0,4.0,90,0.00,,CLR,0.00,0.00,VWS V14.00,2013-03-06 06:42:00,
2013-03-06 00:47:00,5.3,3.0,30.54,NE,38,2.0,4.0,90,0.00,,CLR,0.00,0.00,VWS V14.00,2013-03-06 06:47:00,
2013-03-06 00:52:00,5.2,2.9,30.54,NE,38,2.0,4.0,90,0.00,,BKN015,0.00,0.00,VWS V14.00,2013-03-06 06:52:00,
2013-03-06 00:57:00,5.0,5.0,30.53,NE,38,2.0,4.0,100,0.00,,BKN015,0.00,0.00,VWS V14.00,2013-03-06 06:57:00,
2013-03-06 01:02:00,4.8,2.5,30.54,NE,38,2.0,3.0,90,0.00,,BKN015,0.00,0.00,VWS V14.00,2013-03-06 07:02:00,
2013-03-06 01:07:00,4.8,2.5,30.54,NE,38,2.0,3.0,90,0.00,,BKN015,0.00,0.00,VWS V14.00,2013-03-06 07:07:00,
2013-03-06 01:12:00,4.6,2.3,30.54,NE,38,1.0,3.0,90,0.00,,BKN015,0.00,0.00,VWS V14.00,2013-03-06 07:12:00,
2013-03-06 01:17:00,4.5,2.2,30.54,NE,38,0.0,3.0,90,0.00,,BKN015,0.00,0.00,VWS V14.00,2013-03-06 07:17:00,
2013-03-06 01:22:00,4.4,2.1,30.54,NE,38,0.0,3.0,90,0.00,,BKN015,0.00,0.00,VWS V14.00,2013-03-06 07:22:00,
2013-03-06 01:27:00,4.2,1.7,30.54,NE,38,0.0,3.0,89,0.00,,BKN015,0.00,0.00,VWS V14.00,2013-03-06 07:27:00,
2013-03-06 01:32:00,4.1,1.6,30.54,NE,38,0.0,1.0,89,0.00,,BKN015,0.00,0.00,VWS V14.00,2013-03-06 07:32:00,
2013-03-06 01:37:00,4.0,1.5,30.54,NE,38,0.0,1.0,89,0.00,,BKN015,0.00,0.00,VWS V14.00,2013-03-06 07:37:00,
2013-03-06 01:42:00,4.0,1.5,30.54,NE,38,0.0,1.0,89,0.00,,BKN015,0.00,0.00,VWS V14.00,2013-03-06 07:42:00,
2013-03-06 01:47:00,3.9,1.4,30.54,NE,38,0.0,1.0,89,0.00,,BKN015,0.00,0.00,VWS V14.00,2013-03-06 07:47:00,
2013-03-06 01:52:00,3.8,1.3,30.54,NE,38,0.0,1.0,89,0.00,,,0.00,0.00,VWS V14.00,2013-03-06 07:52:00,
2013-03-06 01:57:00,3.6,1.1,30.54,NE,38,0.0,1.0,89,0.00,,,0.00,0.00,VWS V14.00,2013-03-06 07:57:00,
2013-03-06 02:02:00,3.6,1.1,30.54,NE,38,0.0,0.0,89,0.00,,,0.00,0.00,VWS V14.00,2013-03-06 08:02:00,
2013-03-06 02:07:00,3.6,1.1,30.53,NE,38,0.0,0.0,89,0.00,,,0.00,0.00,VWS V14.00,2013-03-06 08:07:00,
2013-03-06 02:12:00,3.3,0.8,30.53,NE,38,1.0,2.0,89,0.00,,,0.00,0.00,VWS V14.00,2013-03-06 08:12:00,
2013-03-06 02:17:00,3.0,0.5,30.53,NE,38,0.0,2.0,89,0.00,,,0.00,0.00,VWS V14.00,2013-03-06 08:17:00,
2013-03-06 02:22:00,2.7,0.2,30.53,NE,38,0.0,2.0,89,0.00,,,0.00,0.00,VWS V14.00,2013-03-06 08:22:00,
2013-03-06 02:27:00,2.7,0.2,30.53,NE,38,0.0,2.0,89,0.00,,,0.00,0.00,VWS V14.00,2013-03-06 08:27:00,
2013-03-06 02:32:00,2.9,0.6,30.53,NE,38,0.0,0.0,90,0.00,,,0.00,0.00,VWS V14.00,2013-03-06 08:32:00,
2013-03-06 02:37:00,3.1,0.8,30.53,NE,38,0.0,0.0,90,0.00,,,0.00,0.00,VWS V14.00,2013-03-06 08:37:00,
2013-03-06 02:42:00,3.2,0.9,30.53,NE,38,0.0,0.0,90,0.00,,OVC014,0.00,0.00,VWS V14.00,2013-03-06 08:42:00,
2013-03-06 02:47:00,3.6,1.3,30.53,NE,38,0.0,0.0,90,0.00,,OVC014,0.00,0.00,VWS V14.00,2013-03-06 08:47:00,
2013-03-06 02:52:00,3.9,1.6,30.53,NE,39,0.0,0.0,90,0.00,,OVC014,0.00,0.00,VWS V14.00,2013-03-06 08:52:00,
2013-03-06 02:57:00,3.8,1.5,30.53,NE,39,0.0,0.0,90,0.00,,OVC014,0.00,0.00,VWS V14.00,2013-03-06 08:57:00,
2013-03-06 03:02:00,3.7,1.2,30.53,NE,40,0.0,0.0,89,0.00,,OVC014,0.00,0.00,VWS V14.00,2013-03-06 09:02:00,
2013-03-06 03:08:00,3.7,1.2,30.53,NE,40,0.0,0.0,89,0.00,,OVC014,0.00,0.00,VWS V14.00,2013-03-06 09:08:00,
2013-03-06 03:13:00,3.6,1.1,30.53,NE,40,0.0,0.0,89,0.00,,OVC014,0.00,0.00,VWS V14.00,2013-03-06 09:13:00,
2013-03-06 03:18:00,3.3,0.8,30.53,NE,40,0.0,0.0,89,0.00,,OVC014,0.00,0.00,VWS V14.00,2013-03-06 09:18:00,
2013-03-06 03:23:00,3.1,0.4,30.53,NE,40,0.0,0.0,88,0.00,,OVC014,0.00,0.00,VWS V14.00,2013-03-06 09:23:00,
2013-03-06 03:28:00,2.9,0.4,30.53,NE,40,0.0,0.0,89,0.00,,OVC014,0.00,0.00,VWS V14.00,2013-03-06 09:28:00,
2013-03-06 03:33:00,2.8,0.3,30.53,NE,40,0.0,0.0,89,0.00,,OVC014,0.00,0.00,VWS V14.00,2013-03-06 09:33:00,
2013-03-06 03:38:00,2.8,0.3,30.53,NE,40,0.0,0.0,89,0.00,,OVC014,0.00,0.00,VWS V14.00,2013-03-06 09:38:00,
2013-03-06 03:43:00,2.8,0.3,30.53,NE,40,0.0,0.0,89,0.00,,OVC015,0.00,0.00,VWS V14.00,2013-03-06 09:43:00,
2013-03-06 03:48:00,3.1,0.6,30.52,NE,40,0.0,0.0,89,0.00,,OVC015,0.00,0.00,VWS V14.00,2013-03-06 09:48:00,
2013-03-06 03:53:00,3.4,0.9,30.52,NE,40,0.0,0.0,89,0.00,,,0.00,0.00,VWS V14.00,2013-03-06 09:53:00,
2013-03-06 03:58:00,3.2,0.7,30.52,NE,40,0.0,0.0,89,0.00,,,0.00,0.00,VWS V14.00,2013-03-06 09:58:00,
2013-03-06 04:03:00,3.1,0.6,30.53,NE,40,0.0,0.0,89,0.00,,,0.00,0.00,VWS V14.00,2013-03-06 10:03:00,
2013-03-06 04:08:00,2.9,0.4,30.52,NE,40,0.0,0.0,89,0.00,,,0.00,0.00,VWS V14.00,2013-03-06 10:08:00,
2013-03-06 04:13:00,2.9,0.4,30.52,NE,40,0.0,0.0,89,0.00,,,0.00,0.00,VWS V14.00,2013-03-06 10:13:00,
2013-03-06 04:18:00,2.9,0.4,30.52,NE,40,0.0,0.0,89,0.00,,,0.00,0.00,VWS V14.00,2013-03-06 10:18:00,
2013-03-06 04:23:00,2.9,0.4,30.52,NE,40,0.0,0.0,89,0.00,,,0.00,0.00,VWS V14.00,2013-03-06 10:23:00,
2013-03-06 04:28:00,2.7,0.0,30.52,NE,40,0.0,0.0,88,0.00,,,0.00,0.00,VWS V14.00,2013-03-06 10:28:00,
2013-03-06 04:33:00,2.6,-0.1,30.52,NE,40,0.0,0.0,88,0.00,,,0.00,0.00,VWS V14.00,2013-03-06 10:33:00,
2013-03-06 04:38:00,2.8,0.3,30.52,NE,40,0.0,0.0,89,0.00,,,0.00,0.00,VWS V14.00,2013-03-06 10:38:00,
2013-03-06 04:43:00,2.9,0.4,30.52,NE,41,0.0,0.0,89,0.00,,OVC014,0.00,0.00,VWS V14.00,2013-03-06 10:43:00,
2013-03-06 04:48:00,2.9,0.4,30.52,NE,41,0.0,0.0,89,0.00,,OVC014,0.00,0.00,VWS V14.00,2013-03-06 10:48:00,
2013-03-06 04:53:00,2.9,0.2,30.52,NE,41,0.0,0.0,88,0.00,,OVC014,0.00,0.00,VWS V14.00,2013-03-06 10:53:00,
2013-03-06 04:58:00,2.8,0.1,30.53,NE,41,0.0,0.0,88,0.00,,OVC014,0.00,0.00,VWS V14.00,2013-03-06 10:58:00,
2013-03-06 05:03:00,2.9,0.4,30.53,NE,41,0.0,0.0,89,0.00,,OVC014,0.00,0.00,VWS V14.00,2013-03-06 11:03:00,
2013-03-06 05:09:00,2.9,0.4,30.53,NE,41,0.0,0.0,89,0.00,,OVC014,0.00,0.00,VWS V14.00,2013-03-06 11:09:00,
2013-03-06 05:14:00,3.0,0.5,30.52,NE,41,0.0,0.0,89,0.00,,OVC014,0.00,0.00,VWS V14.00,2013-03-06 11:14:00,
2013-03-06 05:19:00,3.2,0.7,30.53,NE,41,0.0,0.0,89,0.00,,OVC014,0.00,0.00,VWS V14.00,2013-03-06 11:19:00,
2013-03-06 05:24:00,3.3,0.8,30.53,NE,41,0.0,0.0,89,0.00,,OVC014,0.00,0.00,VWS V14.00,2013-03-06 11:24:00,
2013-03-06 05:29:00,3.3,0.8,30.53,NE,41,0.0,0.0,89,0.00,,OVC014,0.00,0.00,VWS V14.00,2013-03-06 11:29:00,
2013-03-06 05:34:00,3.5,1.0,30.53,NE,41,0.0,0.0,89,0.00,,OVC014,0.00,0.00,VWS V14.00,2013-03-06 11:34:00,
2013-03-06 05:39:00,3.5,1.0,30.52,NE,41,0.0,0.0,89,0.00,,OVC014,0.00,0.00,VWS V14.00,2013-03-06 11:39:00,
2013-03-06 05:44:00,3.3,0.6,30.52,NE,41,0.0,0.0,88,0.00,,SCT013,0.00,0.00,VWS V14.00,2013-03-06 11:44:00,
2013-03-06 05:49:00,3.1,0.4,30.52,NE,41,0.0,1.0,88,0.00,,SCT013,0.00,0.00,VWS V14.00,2013-03-06 11:49:00,
2013-03-06 05:54:00,2.8,0.1,30.52,NE,41,0.0,1.0,88,0.00,,SCT013,0.00,0.00,VWS V14.00,2013-03-06 11:54:00,
2013-03-06 05:59:00,2.6,-0.1,30.52,NE,41,0.0,0.0,88,0.00,,SCT013,0.00,0.00,VWS V14.00,2013-03-06 11:59:00,
2013-03-06 06:04:00,2.4,-0.3,30.52,NE,41,0.0,0.0,88,0.00,,SCT013,0.00,0.00,VWS V14.00,2013-03-06 12:04:00,
2013-03-06 06:09:00,2.3,-0.4,30.52,NE,41,0.0,0.0,88,0.00,,SCT013,0.00,0.00,VWS V14.00,2013-03-06 12:09:00,
2013-03-06 06:14:00,2.4,-0.3,30.52,NE,41,0.0,0.0,88,0.00,,SCT013,0.00,0.00,VWS V14.00,2013-03-06 12:14:00,
2013-03-06 06:19:00,2.3,-0.4,30.52,NE,41,0.0,0.0,88,0.00,,SCT013,0.00,0.00,VWS V14.00,2013-03-06 12:19:00,
2013-03-06 06:24:00,2.0,-0.7,30.52,NE,41,0.0,0.0,88,0.00,,SCT013,0.00,0.00,VWS V14.00,2013-03-06 12:24:00,
2013-03-06 06:29:00,1.8,-1.2,30.52,NE,41,0.0,0.0,87,0.00,,SCT013,0.00,0.00,VWS V14.00,2013-03-06 12:29:00,
2013-03-06 06:34:00,1.8,-0.9,30.52,NE,41,0.0,0.0,88,0.00,,SCT013,0.00,0.00,VWS V14.00,2013-03-06 12:34:00,
2013-03-06 06:39:00,1.8,-0.9,30.52,NE,41,0.0,1.0,88,0.00,,SCT013,0.00,0.00,VWS V14.00,2013-03-06 12:39:00,
2013-03-06 06:44:00,1.6,-1.4,30.52,NE,41,0.0,1.0,87,0.00,,SCT013,0.00,0.00,VWS V14.00,2013-03-06 12:44:00,
2013-03-06 06:50:00,1.5,-1.2,30.52,NE,41,0.0,1.0,88,0.00,,SCT013,0.00,0.00,VWS V14.00,2013-03-06 12:50:00,
2013-03-06 06:55:00,1.5,-1.2,30.52,NE,41,1.0,1.0,88,0.00,,BKN003,0.00,0.00,VWS V14.00,2013-03-06 12:55:00,
2013-03-06 07:00:00,1.3,-1.7,30.52,NE,41,0.0,0.0,87,0.00,,BKN003,0.00,0.00,VWS V14.00,2013-03-06 13:00:00,
2013-03-06 07:05:00,1.2,-1.5,30.52,NE,41,0.0,1.0,88,0.00,,BKN003,0.00,0.00,VWS V14.00,2013-03-06 13:05:00,
2013-03-06 07:10:00,1.1,-1.6,30.52,NE,41,0.0,1.0,88,0.00,,BKN003,0.00,0.00,VWS V14.00,2013-03-06 13:10:00,
2013-03-06 07:15:00,1.3,-1.4,30.52,NE,41,0.0,1.0,88,0.00,,BKN003,0.00,5.00,VWS V14.00,2013-03-06 13:15:00,
2013-03-06 07:20:00,1.4,-1.3,30.52,NE,41,0.0,1.0,88,0.00,,BKN003,0.00,9.00,VWS V14.00,2013-03-06 13:20:00,
2013-03-06 07:25:00,1.5,-1.2,30.52,NE,41,0.0,1.0,88,0.00,,BKN003,0.00,14.00,VWS V14.00,2013-03-06 13:25:00,
2013-03-06 07:30:00,1.9,-0.8,30.52,NE,41,0.0,1.0,88,0.00,,BKN003,0.00,18.00,VWS V14.00,2013-03-06 13:30:00,
2013-03-06 07:35:00,2.1,-0.6,30.52,NE,41,0.0,1.0,88,0.00,,BKN003,0.00,21.00,VWS V14.00,2013-03-06 13:35:00,
2013-03-06 07:40:00,2.2,-0.5,30.52,NE,41,0.0,1.0,88,0.00,,OVC003,0.00,26.00,VWS V14.00,2013-03-06 13:40:00,
2013-03-06 07:45:00,2.1,-0.6,30.52,NE,41,0.0,1.0,88,0.00,,OVC003,0.00,30.00,VWS V14.00,2013-03-06 13:45:00,
2013-03-06 07:50:00,2.1,-0.6,30.52,NE,41,0.0,1.0,88,0.00,,,0.00,32.00,VWS V14.00,2013-03-06 13:50:00,
2013-03-06 07:55:00,2.2,-0.5,30.52,NE,41,0.0,1.0,88,0.00,,,0.00,40.00,VWS V14.00,2013-03-06 13:55:00,
2013-03-06 08:00:00,2.2,-0.5,30.52,NE,42,0.0,0.0,88,0.00,,,0.00,35.00,VWS V14.00,2013-03-06 14:00:00,
2013-03-06 08:05:00,2.3,-0.4,30.51,NE,44,0.0,1.0,88,0.00,,,0.00,40.00,VWS V14.00,2013-03-06 14:05:00,
2013-03-06 08:11:00,2.3,-0.4,30.51,NE,54,0.0,1.0,88,0.00,,,0.00,44.00,VWS V14.00,2013-03-06 14:11:00,
2013-03-06 08:16:00,2.7,0.0,30.51,ENE,59,0.0,1.0,88,0.00,,,0.00,62.00,VWS V14.00,2013-03-06 14:16:00,
2013-03-06 08:21:00,3.2,0.4,30.51,ENE,61,0.0,1.0,88,0.00,,,0.00,67.00,VWS V14.00,2013-03-06 14:21:00,
2013-03-06 08:26:00,3.6,0.9,30.51,ENE,67,0.0,1.0,88,0.00,,,0.00,91.00,VWS V14.00,2013-03-06 14:26:00,
2013-03-06 08:31:00,3.9,1.1,30.51,ENE,70,0.0,0.0,88,0.00,,,0.00,98.00,VWS V14.00,2013-03-06 14:31:00,
2013-03-06 08:36:00,4.3,1.5,30.51,ENE,71,0.0,0.0,88,0.00,,,0.00,100.00,VWS V14.00,2013-03-06 14:36:00,
2013-03-06 08:41:00,4.9,2.4,30.51,ENE,72,0.0,0.0,89,0.00,,,0.00,107.00,VWS V14.00,2013-03-06 14:41:00,
2013-03-06 08:46:00,5.5,3.0,30.51,ENE,72,0.0,0.0,89,0.00,,,0.00,127.00,VWS V14.00,2013-03-06 14:46:00,
2013-03-06 08:51:00,6.2,3.7,30.51,ENE,72,0.0,1.0,89,0.00,,,0.00,130.00,VWS V14.00,2013-03-06 14:51:00,
2013-03-06 08:56:00,6.2,3.4,30.51,ENE,74,0.0,1.0,88,0.00,,,0.00,146.00,VWS V14.00,2013-03-06 14:56:00,
2013-03-06 09:01:00,6.5,3.7,30.51,ENE,75,1.0,1.0,88,0.00,,,0.00,156.00,VWS V14.00,2013-03-06 15:01:00,
2013-03-06 09:06:00,6.5,3.7,30.51,ENE,75,0.0,1.0,88,0.00,,,0.00,167.00,VWS V14.00,2013-03-06 15:06:00,
2013-03-06 09:11:00,6.9,4.3,30.51,ENE,76,0.0,1.0,89,0.00,,,0.00,174.00,VWS V14.00,2013-03-06 15:11:00,
2013-03-06 09:16:00,7.2,4.4,30.51,ENE,76,0.0,1.0,88,0.00,,,0.00,190.00,VWS V14.00,2013-03-06 15:16:00,
2013-03-06 09:21:00,7.6,5.0,30.51,ENE,76,0.0,1.0,89,0.00,,,0.00,199.00,VWS V14.00,2013-03-06 15:21:00,
2013-03-06 09:26:00,7.9,5.1,30.51,ENE,76,0.0,1.0,88,0.00,,,0.00,207.00,VWS V14.00,2013-03-06 15:26:00,
2013-03-06 09:31:00,7.8,5.0,30.51,ENE,78,0.0,1.0,88,0.00,,,0.00,220.00,VWS V14.00,2013-03-06 15:31:00,
2013-03-06 09:36:00,7.8,5.0,30.50,ENE,78,0.0,1.0,88,0.00,,,0.00,234.00,VWS V14.00,2013-03-06 15:36:00,
2013-03-06 09:41:00,7.5,4.7,30.50,ENE,78,0.0,2.0,88,0.00,,,0.00,246.00,VWS V14.00,2013-03-06 15:41:00,
2013-03-06 09:46:00,7.7,4.9,30.50,ENE,78,1.0,2.0,88,0.00,,,0.00,255.00,VWS V14.00,2013-03-06 15:46:00,
2013-03-06 09:52:00,8.0,5.2,30.50,East,79,1.0,2.0,88,0.00,,,0.00,265.00,VWS V14.00,2013-03-06 15:52:00,
2013-03-06 09:57:00,8.1,5.3,30.50,East,83,0.0,2.0,88,0.00,,,0.00,279.00,VWS V14.00,2013-03-06 15:57:00,
2013-03-06 10:02:00,8.2,5.4,30.50,East,89,1.0,2.0,88,0.00,,,0.00,288.00,VWS V14.00,2013-03-06 16:02:00,
2013-03-06 10:07:00,8.8,6.0,30.50,ESE,115,7.0,8.0,88,0.00,,,0.00,304.00,VWS V14.00,2013-03-06 16:07:00,
2013-03-06 10:12:00,8.9,6.1,30.50,ESE,118,7.0,9.0,88,0.00,,,0.00,302.00,VWS V14.00,2013-03-06 16:12:00,
2013-03-06 10:17:00,9.1,6.3,30.50,ESE,106,9.0,10.0,88,0.00,,,0.00,290.00,VWS V14.00,2013-03-06 16:17:00,
2013-03-06 10:22:00,8.8,6.0,30.49,ESE,117,9.0,10.0,88,0.00,,,0.00,322.00,VWS V14.00,2013-03-06 16:22:00,
2013-03-06 10:27:00,9.4,6.6,30.49,ESE,107,10.0,11.0,88,0.00,,,0.00,374.00,VWS V14.00,2013-03-06 16:27:00,
2013-03-06 10:32:00,9.9,7.3,30.49,ESE,109,9.0,12.0,89,0.00,,,0.00,369.00,VWS V14.00,2013-03-06 16:32:00,
2013-03-06 10:37:00,10.0,7.2,30.49,ESE,111,11.0,12.0,88,0.00,,,0.00,367.00,VWS V14.00,2013-03-06 16:37:00,
2013-03-06 10:42:00,10.1,7.3,30.49,ESE,109,12.0,13.0,88,0.00,,SCT005,0.00,362.00,VWS V14.00,2013-03-06 16:42:00,
2013-03-06 10:47:00,10.2,7.4,30.49,ESE,107,11.0,13.0,88,0.00,,SCT005,0.00,366.00,VWS V14.00,2013-03-06 16:47:00,
2013-03-06 10:52:00,10.7,8.1,30.48,ESE,107,10.0,13.0,89,0.00,,SCT005,0.00,403.00,VWS V14.00,2013-03-06 16:52:00,
2013-03-06 10:57:00,11.0,8.1,30.48,ESE,108,12.0,14.0,88,0.00,,SCT005,0.00,413.00,VWS V14.00,2013-03-06 16:57:00,
2013-03-06 11:02:00,10.9,8.1,30.48,ESE,117,12.0,14.0,88,0.00,,SCT005,0.00,410.00,VWS V14.00,2013-03-06 17:02:00,
2013-03-06 11:07:00,11.0,8.1,30.48,ESE,121,9.0,14.0,88,0.00,,SCT005,0.00,410.00,VWS V14.00,2013-03-06 17:07:00,
2013-03-06 11:12:00,11.1,8.2,30.48,ESE,119,11.0,14.0,88,0.00,,SCT005,0.00,418.00,VWS V14.00,2013-03-06 17:12:00,
2013-03-06 11:17:00,11.3,8.4,30.48,ESE,118,7.0,14.0,88,0.00,,SCT005,0.00,446.00,VWS V14.00,2013-03-06 17:17:00,
2013-03-06 11:22:00,11.4,8.5,30.47,ESE,112,12.0,15.0,88,0.00,,SCT005,0.00,468.00,VWS V14.00,2013-03-06 17:22:00,
2013-03-06 11:27:00,11.6,8.7,30.47,ESE,117,12.0,16.0,88,0.00,,SCT005,0.00,487.00,VWS V14.00,2013-03-06 17:27:00,
2013-03-06 11:32:00,12.0,9.1,30.46,ESE,119,10.0,15.0,88,0.00,,SCT005,0.00,459.00,VWS V14.00,2013-03-06 17:32:00,
2013-03-06 11:37:00,11.8,8.9,30.46,ESE,116,11.0,15.0,88,0.00,,SCT005,0.00,499.00,VWS V14.00,2013-03-06 17:37:00,
2013-03-06 11:42:00,12.2,9.3,30.46,ESE,121,12.0,16.0,88,0.00,,,0.00,494.00,VWS V14.00,2013-03-06 17:42:00,
2013-03-06 11:47:00,12.0,9.1,30.46,ESE,115,14.0,17.0,88,0.00,,,0.00,520.00,VWS V14.00,2013-03-06 17:47:00,
2013-03-06 11:52:00,12.3,9.4,30.46,ESE,111,13.0,17.0,88,0.00,,,0.00,473.00,VWS V14.00,2013-03-06 17:52:00,
2013-03-06 11:57:00,12.5,9.6,30.45,ESE,118,9.0,17.0,88,0.00,,,0.00,554.00,VWS V14.00,2013-03-06 17:57:00,
2013-03-06 12:02:00,13.0,10.1,30.45,SE,128,14.0,16.0,88,0.00,,,0.00,568.00,VWS V14.00,2013-03-06 18:02:00,
2013-03-06 12:07:00,13.0,9.9,30.45,SE,124,9.0,16.0,87,0.00,,,0.00,577.00,VWS V14.00,2013-03-06 18:07:00,
2013-03-06 12:12:00,13.3,10.4,30.45,ESE,108,12.0,16.0,88,0.00,,,0.00,545.00,VWS V14.00,2013-03-06 18:12:00,
2013-03-06 12:18:00,13.2,10.1,30.45,ESE,111,11.0,16.0,87,0.00,,,0.00,566.00,VWS V14.00,2013-03-06 18:18:00,
2013-03-06 12:23:00,13.4,10.3,30.45,ESE,122,13.0,16.0,87,0.00,,,0.00,601.00,VWS V14.00,2013-03-06 18:23:00,
2013-03-06 12:28:00,13.7,10.6,30.44,ESE,114,13.0,16.0,87,0.00,,,0.00,701.00,VWS V14.00,2013-03-06 18:28:00,
2013-03-06 12:33:00,14.0,10.9,30.44,SE,132,16.0,18.0,87,0.00,,,0.00,670.00,VWS V14.00,2013-03-06 18:33:00,
2013-03-06 12:38:00,14.2,11.1,30.44,ESE,123,13.0,18.0,87,0.00,,,0.00,698.00,VWS V14.00,2013-03-06 18:38:00,
2013-03-06 12:43:00,14.7,11.5,30.44,ESE,109,10.0,18.0,87,0.00,,SCT007,0.00,633.00,VWS V14.00,2013-03-06 18:43:00,
2013-03-06 12:48:00,14.8,11.4,30.44,ESE,115,11.0,18.0,86,0.00,,SCT007,0.00,679.00,VWS V14.00,2013-03-06 18:48:00,
2013-03-06 12:53:00,14.7,11.3,30.44,ESE,117,14.0,18.0,86,0.00,,SCT007,0.00,564.00,VWS V14.00,2013-03-06 18:53:00,
2013-03-06 12:58:00,14.9,11.5,30.43,ESE,121,10.0,18.0,86,0.00,,SCT007,0.00,606.00,VWS V14.00,2013-03-06 18:58:00,
2013-03-06 13:03:00,15.1,11.7,30.43,SE,130,14.0,17.0,86,0.00,,SCT007,0.00,673.00,VWS V14.00,2013-03-06 19:03:00,
2013-03-06 13:08:00,15.4,12.2,30.43,SE,125,12.0,17.0,87,0.00,,SCT007,0.00,626.00,VWS V14.00,2013-03-06 19:08:00,
2013-03-06 13:13:00,15.8,12.4,30.42,ESE,119,13.0,17.0,86,0.00,,SCT007,0.00,647.00,VWS V14.00,2013-03-06 19:13:00,
2013-03-06 13:18:00,16.1,12.7,30.42,ESE,115,10.0,17.0,86,0.00,,SCT007,0.00,680.00,VWS V14.00,2013-03-06 19:18:00,
2013-03-06 13:23:00,16.4,12.9,30.42,East,101,15.0,17.0,86,0.00,,SCT007,0.00,691.00,VWS V14.00,2013-03-06 19:23:00,
2013-03-06 13:28:00,16.9,13.4,30.41,ESE,105,14.0,17.0,86,0.00,,SCT007,0.00,705.00,VWS V14.00,2013-03-06 19:28:00,
2013-03-06 13:33:00,16.7,13.0,30.41,SE,127,12.0,15.0,85,0.00,,SCT007,0.00,638.00,VWS V14.00,2013-03-06 19:33:00,
2013-03-06 13:38:00,16.9,13.4,30.40,ESE,120,15.0,16.0,86,0.00,,SCT007,0.00,682.00,VWS V14.00,2013-03-06 19:38:00,
2013-03-06 13:43:00,16.9,12.9,30.40,SE,124,16.0,20.0,84,0.00,,CLR,0.00,670.00,VWS V14.00,2013-03-06 19:43:00,
2013-03-06 13:48:00,17.0,13.3,30.40,ESE,117,16.0,20.0,85,0.00,,CLR,0.00,645.00,VWS V14.00,2013-03-06 19:48:00,
2013-03-06 13:53:00,17.4,13.7,30.39,SE,124,11.0,20.0,85,0.00,,CLR,0.00,675.00,VWS V14.00,2013-03-06 19:53:00,
2013-03-06 13:59:00,17.5,13.8,30.39,ESE,123,13.0,16.0,85,0.00,,CLR,0.00,652.00,VWS V14.00,2013-03-06 19:59:00,
2013-03-06 14:04:00,17.3,13.3,30.39,SE,128,16.0,20.0,84,0.00,,CLR,0.00,650.00,VWS V14.00,2013-03-06 20:04:00,
2013-03-06 14:09:00,17.3,13.3,30.38,ESE,118,13.0,23.0,84,0.00,,CLR,0.00,647.00,VWS V14.00,2013-03-06 20:09:00,
2013-03-06 14:14:00,17.4,13.4,30.38,ESE,119,11.0,23.0,84,0.00,,CLR,0.00,635.00,VWS V14.00,2013-03-06 20:14:00,
2013-03-06 14:19:00,17.7,14.0,30.38,ESE,120,13.0,23.0,85,0.00,,CLR,0.00,640.00,VWS V14.00,2013-03-06 20:19:00,
2013-03-06 14:24:00,18.0,14.0,30.38,SE,128,12.0,23.0,84,0.00,,CLR,0.00,631.00,VWS V14.00,2013-03-06 20:24:00,
2013-03-06 14:29:00,18.2,14.2,30.37,ESE,120,17.0,18.0,84,0.00,,CLR,0.00,621.00,VWS V14.00,2013-03-06 20:29:00,
2013-03-06 14:34:00,18.0,14.0,30.37,ESE,122,15.0,18.0,84,0.00,,CLR,0.00,617.00,VWS V14.00,2013-03-06 20:34:00,
2013-03-06 14:39:00,18.1,14.1,30.37,ESE,116,14.0,21.0,84,0.00,,CLR,0.00,599.00,VWS V14.00,2013-03-06 20:39:00,
2013-03-06 14:44:00,18.0,14.3,30.36,SE,124,15.0,21.0,85,0.00,,CLR,0.00,578.00,VWS V14.00,2013-03-06 20:44:00,
2013-03-06 14:49:00,17.9,14.2,30.36,SE,124,16.0,21.0,85,0.00,,CLR,0.00,585.00,VWS V14.00,2013-03-06 20:49:00,
2013-03-06 14:54:00,17.8,14.1,30.36,ESE,117,15.0,21.0,85,0.00,,CLR,0.00,580.00,VWS V14.00,2013-03-06 20:54:00,
2013-03-06 14:59:00,18.0,14.3,30.35,ESE,112,12.0,18.0,85,0.00,,CLR,0.00,543.00,VWS V14.00,2013-03-06 20:59:00,
2013-03-06 15:04:00,18.1,14.1,30.35,SE,128,14.0,21.0,84,0.00,,CLR,0.00,526.00,VWS V14.00,2013-03-06 21:04:00,
2013-03-06 15:09:00,18.4,14.6,30.34,ESE,109,12.0,21.0,85,0.00,,CLR,0.00,550.00,VWS V14.00,2013-03-06 21:09:00,
2013-03-06 15:14:00,18.6,14.6,30.34,ESE,109,12.0,21.0,84,0.00,,CLR,0.00,543.00,VWS V14.00,2013-03-06 21:14:00,
2013-03-06 15:19:00,18.7,14.7,30.34,ESE,114,14.0,21.0,84,0.00,,CLR,0.00,506.00,VWS V14.00,2013-03-06 21:19:00,
2013-03-06 15:24:00,18.7,14.4,30.34,ESE,110,16.0,21.0,83,0.00,,CLR,0.00,522.00,VWS V14.00,2013-03-06 21:24:00,
2013-03-06 15:30:00,18.8,14.5,30.34,ESE,114,12.0,19.0,83,0.00,,CLR,0.00,501.00,VWS V14.00,2013-03-06 21:30:00,
2013-03-06 15:35:00,18.6,14.6,30.34,ESE,105,15.0,20.0,84,0.00,,CLR,0.00,513.00,VWS V14.00,2013-03-06 21:35:00,
2013-03-06 15:40:00,18.7,14.4,30.34,ESE,119,21.0,21.0,83,0.00,,CLR,0.00,496.00,VWS V14.00,2013-03-06 21:40:00,
2013-03-06 15:45:00,18.5,14.5,30.34,ESE,108,12.0,21.0,84,0.00,,CLR,0.00,482.00,VWS V14.00,2013-03-06 21:45:00,
2013-03-06 15:50:00,18.5,14.5,30.33,ESE,115,13.0,22.0,84,0.00,,CLR,0.00,473.00,VWS V14.00,2013-03-06 21:50:00,
2013-03-06 15:55:00,18.8,14.8,30.33,East,95,14.0,22.0,84,0.00,,CLR,0.00,454.00,VWS V14.00,2013-03-06 21:55:00,
2013-03-06 16:00:00,18.5,14.2,30.33,East,96,14.0,17.0,83,0.00,,CLR,0.00,443.00,VWS V14.00,2013-03-06 22:00:00,
2013-03-06 16:05:00,18.4,14.4,30.33,ESE,117,15.0,20.0,84,0.00,,CLR,0.00,381.00,VWS V14.00,2013-03-06 22:05:00,
2013-03-06 16:10:00,18.6,14.9,30.33,East,89,13.0,20.0,85,0.00,,CLR,0.00,388.00,VWS V14.00,2013-03-06 22:10:00,
2013-03-06 16:15:00,18.6,14.9,30.33,ESE,123,20.0,20.0,85,0.00,,CLR,0.00,376.00,VWS V14.00,2013-03-06 22:15:00,
2013-03-06 16:20:00,18.5,14.5,30.32,ESE,117,17.0,21.0,84,0.00,,CLR,0.00,381.00,VWS V14.00,2013-03-06 22:20:00,
2013-03-06 16:25:00,18.3,14.3,30.32,ESE,109,13.0,21.0,84,0.00,,CLR,0.00,279.00,VWS V14.00,2013-03-06 22:25:00,
2013-03-06 16:30:00,18.1,14.1,30.32,ESE,107,19.0,19.0,84,0.00,,CLR,0.00,221.00,VWS V14.00,2013-03-06 22:30:00,
2013-03-06 16:35:00,17.9,13.9,30.31,ESE,116,22.0,22.0,84,0.00,,CLR,0.00,230.00,VWS V14.00,2013-03-06 22:35:00,
2013-03-06 16:40:00,17.9,14.2,30.32,ESE,113,9.0,22.0,85,0.00,,CLR,0.00,258.00,VWS V14.00,2013-03-06 22:40:00,
2013-03-06 16:45:00,17.9,14.2,30.31,ESE,113,21.0,22.0,85,0.00,,CLR,0.00,292.00,VWS V14.00,2013-03-06 22:45:00,
2013-03-06 16:50:00,17.8,14.1,30.31,East,94,15.0,22.0,85,0.00,,CLR,0.00,239.00,VWS V14.00,2013-03-06 22:50:00,
2013-03-06 16:55:00,17.7,14.0,30.31,ESE,123,14.0,22.0,85,0.00,,CLR,0.00,195.00,VWS V14.00,2013-03-06 22:55:00,
2013-03-06 17:00:00,17.4,13.7,30.30,ESE,107,14.0,18.0,85,0.00,,CLR,0.00,167.00,VWS V14.00,2013-03-06 23:00:00,
2013-03-06 17:06:00,17.2,13.5,30.30,ESE,106,14.0,22.0,85,0.00,,CLR,0.00,155.00,VWS V14.00,2013-03-06 23:06:00,
2013-03-06 17:11:00,17.1,13.4,30.30,ESE,108,16.0,22.0,85,0.00,,CLR,0.00,144.00,VWS V14.00,2013-03-06 23:11:00,
2013-03-06 17:16:00,16.9,13.4,30.31,ESE,105,10.0,22.0,86,0.00,,CLR,0.00,134.00,VWS V14.00,2013-03-06 23:16:00,
2013-03-06 17:21:00,16.7,13.2,30.30,ESE,109,14.0,22.0,86,0.00,,CLR,0.00,120.00,VWS V14.00,2013-03-06 23:21:00,
2013-03-06 17:26:00,16.4,12.9,30.31,East,98,17.0,22.0,86,0.00,,CLR,0.00,111.00,VWS V14.00,2013-03-06 23:26:00,
2013-03-06 17:31:00,16.3,12.9,30.31,East,96,11.0,19.0,86,0.00,,CLR,0.00,104.00,VWS V14.00,2013-03-06 23:31:00,
2013-03-06 17:36:00,16.1,12.7,30.30,ESE,112,11.0,19.0,86,0.00,,CLR,0.00,90.00,VWS V14.00,2013-03-06 23:36:00,
2013-03-06 17:41:00,15.8,12.6,30.31,ESE,107,16.0,19.0,87,0.00,,CLR,0.00,81.00,VWS V14.00,2013-03-06 23:41:00,
2013-03-06 17:46:00,15.7,12.5,30.31,ESE,107,16.0,19.0,87,0.00,,CLR,0.00,72.00,VWS V14.00,2013-03-06 23:46:00,
2013-03-06 17:51:00,15.6,12.4,30.31,East,99,15.0,19.0,87,0.00,,CLR,0.00,74.00,VWS V14.00,2013-03-06 23:51:00,
2013-03-06 17:56:00,15.5,12.3,30.31,ESE,111,16.0,21.0,87,0.00,,CLR,0.00,65.00,VWS V14.00,2013-03-06 23:56:00,
2013-03-06 18:01:00,15.4,12.2,30.31,ESE,104,12.0,15.0,87,0.00,,CLR,0.00,47.00,VWS V14.00,2013-03-07 00:01:00,
2013-03-06 18:06:00,15.3,12.1,30.30,ESE,102,16.0,18.0,87,0.00,,CLR,0.00,44.00,VWS V14.00,2013-03-07 00:06:00,
2013-03-06 18:11:00,15.0,11.8,30.31,ESE,104,15.0,20.0,87,0.00,,CLR,0.00,39.00,VWS V14.00,2013-03-07 00:11:00,
2013-03-06 18:16:00,14.9,11.7,30.30,ESE,112,18.0,21.0,87,0.00,,CLR,0.00,35.00,VWS V14.00,2013-03-07 00:16:00,
2013-03-06 18:21:00,14.8,11.6,30.31,SE,124,8.0,21.0,87,0.00,,CLR,0.00,30.00,VWS V14.00,2013-03-07 00:21:00,
2013-03-06 18:26:00,14.5,11.6,30.31,ESE,105,12.0,21.0,88,0.00,,CLR,0.00,21.00,VWS V14.00,2013-03-07 00:26:00,
2013-03-06 18:31:00,14.4,11.5,30.31,ESE,109,16.0,17.0,88,0.00,,CLR,0.00,12.00,VWS V14.00,2013-03-07 00:31:00,
2013-03-06 18:36:00,14.2,11.3,30.31,ESE,110,15.0,17.0,88,0.00,,CLR,0.00,5.00,VWS V14.00,2013-03-07 00:36:00,
2013-03-06 18:41:00,13.9,11.0,30.32,ESE,111,13.0,17.0,88,0.00,,CLR,0.00,0.00,VWS V14.00,2013-03-07 00:41:00,
2013-03-06 18:46:00,13.7,10.8,30.32,ESE,117,10.0,17.0,88,0.00,,CLR,0.00,0.00,VWS V14.00,2013-03-07 00:46:00,
2013-03-06 18:51:00,13.6,10.7,30.32,ESE,114,12.0,18.0,88,0.00,,CLR,0.00,0.00,VWS V14.00,2013-03-07 00:51:00,
2013-03-06 18:56:00,13.4,10.5,30.32,ESE,105,14.0,18.0,88,0.00,,CLR,0.00,0.00,VWS V14.00,2013-03-07 00:56:00,
2013-03-06 19:01:00,13.3,10.4,30.32,ESE,103,17.0,20.0,88,0.00,,CLR,0.00,0.00,VWS V14.00,2013-03-07 01:01:00,
2013-03-06 19:07:00,13.2,10.3,30.32,ESE,107,13.0,20.0,88,0.00,,CLR,0.00,0.00,VWS V14.00,2013-03-07 01:07:00,
2013-03-06 19:12:00,13.1,10.2,30.33,East,101,18.0,20.0,88,0.00,,CLR,0.00,0.00,VWS V14.00,2013-03-07 01:12:00,
2013-03-06 19:17:00,13.0,10.1,30.33,East,96,13.0,21.0,88,0.00,,CLR,0.00,0.00,VWS V14.00,2013-03-07 01:17:00,
2013-03-06 19:22:00,12.9,10.0,30.32,ESE,107,15.0,21.0,88,0.00,,CLR,0.00,0.00,VWS V14.00,2013-03-07 01:22:00,
2013-03-06 19:27:00,12.7,9.8,30.32,ESE,117,19.0,21.0,88,0.00,,CLR,0.00,0.00,VWS V14.00,2013-03-07 01:27:00,
2013-03-06 19:32:00,12.6,9.7,30.32,East,97,11.0,20.0,88,0.00,,CLR,0.00,0.00,VWS V14.00,2013-03-07 01:32:00,
2013-03-06 19:37:00,12.6,9.7,30.32,ESE,106,23.0,23.0,88,0.00,,CLR,0.00,0.00,VWS V14.00,2013-03-07 01:37:00,
2013-03-06 19:42:00,12.4,9.8,30.32,ESE,121,19.0,23.0,89,0.00,,CLR,0.00,0.00,VWS V14.00,2013-03-07 01:42:00,
2013-03-06 19:47:00,12.3,9.4,30.31,ESE,119,13.0,24.0,88,0.00,,CLR,0.00,0.00,VWS V14.00,2013-03-07 01:47:00,
2013-03-06 19:52:00,12.2,9.3,30.32,ESE,115,16.0,24.0,88,0.00,,CLR,0.00,0.00,VWS V14.00,2013-03-07 01:52:00,
2013-03-06 19:57:00,12.1,9.5,30.32,ESE,113,15.0,24.0,89,0.00,,CLR,0.00,0.00,VWS V14.00,2013-03-07 01:57:00,
2013-03-06 20:02:00,12.0,9.4,30.32,ESE,115,16.0,23.0,89,0.00,,CLR,0.00,0.00,VWS V14.00,2013-03-07 02:02:00,
2013-03-06 20:07:00,12.0,9.4,30.32,ESE,115,16.0,23.0,89,0.00,,CLR,0.00,0.00,VWS V14.00,2013-03-07 02:07:00,
2013-03-06 20:12:00,11.8,9.2,30.30,ESE,118,15.0,23.0,89,0.00,,CLR,0.00,0.00,VWS V14.00,2013-03-07 02:12:00,
2013-03-06 20:17:00,11.7,9.1,30.30,ESE,105,20.0,25.0,89,0.00,,CLR,0.00,0.00,VWS V14.00,2013-03-07 02:17:00,
2013-03-06 20:22:00,11.7,9.1,30.30,ESE,107,17.0,25.0,89,0.00,,CLR,0.00,0.00,VWS V14.00,2013-03-07 02:22:00,
2013-03-06 20:27:00,11.6,9.0,30.29,ESE,108,16.0,25.0,89,0.00,,CLR,0.00,0.00,VWS V14.00,2013-03-07 02:27:00,
2013-03-06 20:32:00,11.5,8.9,30.28,ESE,115,13.0,24.0,89,0.00,,CLR,0.00,0.00,VWS V14.00,2013-03-07 02:32:00,
2013-03-06 20:37:00,11.4,8.8,30.28,ESE,105,15.0,24.0,89,0.00,,CLR,0.00,0.00,VWS V14.00,2013-03-07 02:37:00,
2013-03-06 20:42:00,11.4,8.8,30.29,ESE,115,14.0,25.0,89,0.00,,CLR,0.00,0.00,VWS V14.00,2013-03-07 02:42:00,
2013-03-06 20:47:00,11.3,8.7,30.29,ESE,122,18.0,25.0,89,0.00,,CLR,0.00,0.00,VWS V14.00,2013-03-07 02:47:00,
2013-03-06 20:53:00,11.3,8.7,30.28,ESE,109,17.0,25.0,89,0.00,,CLR,0.00,0.00,VWS V14.00,2013-03-07 02:53:00,
2013-03-06 20:58:00,11.2,8.6,30.28,ESE,108,21.0,25.0,89,0.00,,CLR,0.00,0.00,VWS V14.00,2013-03-07 02:58:00,
2013-03-06 21:03:00,11.1,8.5,30.28,ESE,114,21.0,24.0,89,0.00,,CLR,0.00,0.00,VWS V14.00,2013-03-07 03:03:00,
2013-03-06 21:08:00,11.1,8.5,30.28,ESE,118,14.0,24.0,89,0.00,,CLR,0.00,0.00,VWS V14.00,2013-03-07 03:08:00,
2013-03-06 21:13:00,11.1,8.5,30.29,ESE,119,17.0,24.0,89,0.00,,CLR,0.00,0.00,VWS V14.00,2013-03-07 03:13:00,
2013-03-06 21:18:00,11.1,8.5,30.29,ESE,115,18.0,24.0,89,0.00,,CLR,0.00,0.00,VWS V14.00,2013-03-07 03:18:00,
2013-03-06 21:23:00,11.1,8.5,30.29,ESE,118,14.0,24.0,89,0.00,,CLR,0.00,0.00,VWS V14.00,2013-03-07 03:23:00,
2013-03-06 21:28:00,11.0,8.4,30.29,ESE,113,17.0,24.0,89,0.00,,CLR,0.00,0.00,VWS V14.00,2013-03-07 03:28:00,
2013-03-06 21:33:00,11.1,8.5,30.29,ESE,121,16.0,21.0,89,0.00,,CLR,0.00,0.00,VWS V14.00,2013-03-07 03:33:00,
2013-03-06 21:38:00,11.2,8.9,30.30,ESE,116,15.0,21.0,90,0.00,,CLR,0.00,0.00,VWS V14.00,2013-03-07 03:38:00,
2013-03-06 21:43:00,11.3,8.7,30.30,ESE,121,15.0,21.0,89,0.00,,CLR,0.00,0.00,VWS V14.00,2013-03-07 03:43:00,
2013-03-06 21:48:00,11.4,8.8,30.29,ESE,119,16.0,21.0,89,0.00,,CLR,0.00,0.00,VWS V14.00,2013-03-07 03:48:00,
2013-03-06 21:53:00,11.4,8.8,30.29,ESE,123,18.0,21.0,89,0.00,,CLR,0.00,0.00,VWS V14.00,2013-03-07 03:53:00,
2013-03-06 21:58:00,11.4,8.8,30.29,ESE,119,16.0,17.0,89,0.00,,CLR,0.00,0.00,VWS V14.00,2013-03-07 03:58:00,
2013-03-06 22:03:00,11.4,8.8,30.28,ESE,119,13.0,20.0,89,0.00,,CLR,0.00,0.00,VWS V14.00,2013-03-07 04:03:00,
2013-03-06 22:08:00,11.4,8.8,30.28,ESE,113,17.0,21.0,89,0.00,,CLR,0.00,0.00,VWS V14.00,2013-03-07 04:08:00,
2013-03-06 22:13:00,11.4,8.8,30.28,ESE,117,15.0,21.0,89,0.00,,CLR,0.00,0.00,VWS V14.00,2013-03-07 04:13:00,
2013-03-06 22:19:00,11.5,8.9,30.28,ESE,111,15.0,21.0,89,0.00,,CLR,0.00,0.00,VWS V14.00,2013-03-07 04:19:00,
2013-03-06 22:24:00,11.5,8.9,30.28,East,101,15.0,21.0,89,0.00,,CLR,0.00,0.00,VWS V14.00,2013-03-07 04:24:00,
2013-03-06 22:29:00,11.6,9.2,30.28,ESE,112,11.0,14.0,90,0.00,,CLR,0.00,0.00,VWS V14.00,2013-03-07 04:29:00,
2013-03-06 22:34:00,11.7,9.3,30.27,ESE,104,14.0,17.0,90,0.00,,CLR,0.00,0.00,VWS V14.00,2013-03-07 04:34:00,
2013-03-06 22:39:00,11.9,9.5,30.27,ESE,121,11.0,19.0,90,0.00,,CLR,0.00,0.00,VWS V14.00,2013-03-07 04:39:00,
2013-03-06 22:44:00,12.2,9.8,30.27,ESE,120,15.0,19.0,90,0.00,,CLR,0.00,0.00,VWS V14.00,2013-03-07 04:44:00,
2013-03-06 22:49:00,12.5,10.1,30.27,ESE,112,18.0,19.0,90,0.00,,CLR,0.00,0.00,VWS V14.00,2013-03-07 04:49:00,
2013-03-06 22:54:00,12.8,10.4,30.27,ESE,121,15.0,21.0,90,0.00,,CLR,0.00,0.00,VWS V14.00,2013-03-07 04:54:00,
2013-03-06 22:59:00,13.0,10.4,30.27,ESE,121,19.0,19.0,89,0.00,,CLR,0.00,0.00,VWS V14.00,2013-03-07 04:59:00,
2013-03-06 23:00:00,13.0,10.4,30.27,ESE,121,17.0,20.0,89,0.00,,CLR,0.00,0.00,VWS V14.00,2013-03-07 05:00:00,
2013-03-06 23:01:00,13.0,10.4,30.27,ESE,119,22.0,22.0,89,0.00,,CLR,0.00,0.00,VWS V14.00,2013-03-07 05:01:00,
2013-03-06 23:04:00,13.1,10.5,30.27,SE,127,10.0,22.0,89,0.00,,CLR,0.00,0.00,VWS V14.00,2013-03-07 05:04:00,
2013-03-06 23:05:00,13.0,10.4,30.27,ESE,122,13.0,22.0,89,0.00,,CLR,0.00,0.00,VWS V14.00,2013-03-07 05:05:00,
2013-03-06 23:10:00,13.1,10.5,30.27,ESE,122,13.0,22.0,89,0.00,,CLR,0.00,0.00,VWS V14.00,2013-03-07 05:10:00,
2013-03-06 23:15:00,13.1,10.5,30.26,ESE,120,15.0,22.0,89,0.00,,CLR,0.00,0.00,VWS V14.00,2013-03-07 05:15:00,
2013-03-06 23:21:00,13.2,10.6,30.27,ESE,120,17.0,22.0,89,0.00,,CLR,0.00,0.00,VWS V14.00,2013-03-07 05:21:00,
2013-03-06 23:26:00,13.2,10.6,30.26,SE,132,18.0,22.0,89,0.00,,CLR,0.00,0.00,VWS V14.00,2013-03-07 05:26:00,
2013-03-06 23:31:00,13.1,10.5,30.26,SE,126,16.0,19.0,89,0.00,,CLR,0.00,0.00,VWS V14.00,2013-03-07 05:31:00,
2013-03-06 23:36:00,13.0,10.4,30.26,ESE,121,15.0,20.0,89,0.00,,CLR,0.00,0.00,VWS V14.00,2013-03-07 05:36:00,
2013-03-06 23:41:00,13.1,10.5,30.26,ESE,107,19.0,20.0,89,0.00,,BKN014,0.00,0.00,VWS V14.00,2013-03-07 05:41:00,
2013-03-06 23:46:00,13.1,10.5,30.26,ESE,118,17.0,20.0,89,0.00,,BKN014,0.00,0.00,VWS V14.00,2013-03-07 05:46:00,
2013-03-06 23:51:00,13.2,10.6,30.26,ESE,119,19.0,21.0,89,0.00,,BKN014,0.00,0.00,VWS V14.00,2013-03-07 05:51:00,
2013-03-06 23:56:00,13.2,10.6,30.25,ESE,115,15.0,21.0,89,0.00,,BKN014,0.00,0.00,VWS V14.00,2013-03-07 05:56:00,